Time;durP1;ratioP1;P1;durP2;ratioP2;P2;SDS_P1;SDS_P2;PMS_P1;PMS_P2;Temp;Humidity;BMP_temperature;BMP_pressure;BME280_temperature;BME280_humidity;BME280_pressure;Samples;Min_cycle;Max_cycle;Signal;HPM_P1;HPM_P2
2022/11/24 00:01:29;;;;;;;103.68;44.85;;;1.80;99.90;;;;;;4961067;28;20226;-84
2022/11/24 00:04:01;;;;;;;108.07;44.95;;;1.80;99.90;;;;;;4961332;28;20313;-82
2022/11/24 00:06:28;;;;;;;84.72;42.55;;;2.20;99.90;;;;;;4963880;29;20206;-85
2022/11/24 00:08:55;;;;;;;89.25;41.70;;;1.50;99.90;;;;;;4965380;28;20274;-84
2022/11/24 00:11:26;;;;;;;92.88;44.10;;;1.50;99.90;;;;;;4966291;29;20222;-86
2022/11/24 00:13:54;;;;;;;99.15;44.17;;;1.80;99.90;;;;;;4966651;28;20222;-86
2022/11/24 00:16:27;;;;;;;92.38;41.50;;;1.50;99.90;;;;;;4964639;28;20219;-86
2022/11/24 00:18:56;;;;;;;79.90;41.55;;;1.70;99.90;;;;;;4959175;28;20187;-86
2022/11/24 00:21:24;;;;;;;98.20;43.60;;;1.70;99.90;;;;;;4962427;28;20227;-86
2022/11/24 00:46:19;;;;;;;85.10;45.65;;;;;;;;;;4959587;29;20254;-83
2022/11/24 00:49:13;;;;;;;;;;;;;;;;;;;;;
2022/11/24 00:52:08;;;;;;;96.72;45.28;;;;;;;;;;4921968;29;20204;-84
2022/11/24 00:54:43;;;;;;;115.25;44.08;;;;;;;;;;4922049;29;20231;-85
2022/11/24 00:57:22;;;;;;;109.72;48.25;;;;;;;;;;4922591;29;20208;-84
2022/11/24 01:06:47;;;;;;;110.38;45.97;;;;;;;;;;4964705;29;20646;-84
2022/11/24 01:09:45;;;;;;;118.72;45.33;;;;;;;;;;4980365;28;20227;-83
2022/11/24 01:13:32;;;;;;;111.75;49.05;;;1.60;99.90;;;;;;4934501;28;20717;-85
2022/11/24 01:22:27;;;;;;;;;;;;;;;;;;;;;
2022/11/24 01:24:59;;;;;;;125.82;46.90;;;;;;;;;;4921116;29;20295;-86
2022/11/24 01:27:56;;;;;;;103.75;43.67;;;;;;;;;;4920971;29;20643;-84
2022/11/24 01:36:59;;;;;;;94.97;45.65;;;;;;;;;;4919913;29;20200;-85
2022/11/24 01:39:57;;;;;;;137.60;49.20;;;;;;;;;;4920684;29;20285;-84
2022/11/24 01:42:49;;;;;;;119.63;47.78;;;1.50;99.90;;;;;;4958998;28;20231;-84
2022/11/24 01:45:44;;;;;;;104.20;44.33;;;1.50;99.90;;;;;;4919832;28;20208;-85
2022/11/24 01:48:23;;;;;;;121.70;44.00;;;1.20;99.90;;;;;;4920332;28;20274;-85
2022/11/24 01:50:57;;;;;;;111.55;46.65;;;1.50;99.90;;;;;;4920090;28;20227;-85
2022/11/24 01:53:28;;;;;;;113.50;47.67;;;1.20;99.90;;;;;;4919237;29;20228;-85
2022/11/24 01:55:56;;;;;;;116.65;44.20;;;1.10;99.90;;;;;;4919965;28;20259;-85
2022/11/24 01:58:35;;;;;;;124.30;46.67;;;1.70;99.90;;;;;;4919597;28;20576;-85
2022/11/24 02:01:03;;;;;;;112.15;47.90;;;1.70;99.90;;;;;;4919805;28;20212;-84
2022/11/24 02:03:40;;;;;;;103.50;46.42;;;0.90;99.90;;;;;;4919663;29;20231;-84
2022/11/24 02:06:14;;;;;;;117.75;46.45;;;2.20;99.90;;;;;;4926081;28;20543;-84
2022/11/24 02:08:46;;;;;;;104.20;45.97;;;1.40;99.90;;;;;;4923582;28;20294;-84
2022/11/24 02:11:14;;;;;;;106.35;44.15;;;1.80;99.90;;;;;;4924663;29;20189;-84
2022/11/24 02:13:43;;;;;;;119.22;47.35;;;1.90;99.90;;;;;;4928721;28;20315;-83
2022/11/24 02:16:17;;;;;;;117.85;46.20;;;1.20;99.90;;;;;;4931051;28;20235;-85
2022/11/24 02:18:48;;;;;;;119.28;45.75;;;1.50;99.90;;;;;;4927913;28;20283;-84
2022/11/24 02:21:21;;;;;;;102.43;47.72;;;1.30;99.90;;;;;;4923932;28;20212;-83
2022/11/24 02:24:04;;;;;;;121.03;43.58;;;1.60;99.90;;;;;;4922786;29;20242;-84
2022/11/24 02:26:46;;;;;;;127.20;47.20;;;1.40;99.90;;;;;;4921181;29;20200;-86
2022/11/24 02:29:18;;;;;;;135.45;45.15;;;1.40;99.90;;;;;;4922569;29;20193;-84
2022/11/24 02:31:53;;;;;;;107.13;46.95;;;1.30;99.90;;;;;;4923645;29;20200;-86
2022/11/24 02:34:26;;;;;;;124.40;45.35;;;1.30;99.90;;;;;;4927488;28;20726;-85
2022/11/24 02:36:57;;;;;;;111.25;42.65;;;1.10;99.90;;;;;;4922732;28;20200;-85
2022/11/24 02:39:29;;;;;;;109.55;46.38;;;1.20;99.90;;;;;;4919800;28;20563;-85
2022/11/24 02:42:07;;;;;;;110.53;46.28;;;1.50;99.90;;;;;;4919864;28;20239;-85
2022/11/24 02:44:42;;;;;;;104.70;44.28;;;1.50;99.90;;;;;;4930517;28;20276;-83
2022/11/24 02:47:16;;;;;;;104.47;46.08;;;1.70;99.90;;;;;;4933683;28;20200;-83
2022/11/24 02:49:49;;;;;;;107.95;44.05;;;1.40;99.90;;;;;;4937457;28;20191;-84
2022/11/24 02:52:21;;;;;;;115.28;46.90;;;1.40;99.90;;;;;;4939642;28;20196;-84
2022/11/24 02:54:53;;;;;;;128.50;45.88;;;1.30;99.90;;;;;;4937340;28;20219;-83
2022/11/24 02:57:28;;;;;;;119.18;45.25;;;1.30;99.90;;;;;;4923136;29;20196;-84
2022/11/24 02:59:59;;;;;;;144.95;49.22;;;1.80;99.90;;;;;;4922694;29;20218;-84
2022/11/24 03:02:30;;;;;;;131.68;44.13;;;1.80;99.90;;;;;;4921334;28;20695;-84
2022/11/24 03:05:01;;;;;;;108.95;43.30;;;1.70;99.90;;;;;;4921004;28;20189;-84
2022/11/24 03:07:34;;;;;;;125.22;43.97;;;1.50;99.90;;;;;;4921330;28;20262;-84
2022/11/24 03:10:07;;;;;;;128.18;44.05;;;1.40;99.90;;;;;;4923289;29;20636;-83
2022/11/24 03:12:41;;;;;;;114.05;42.78;;;1.20;99.90;;;;;;4922252;28;20243;-83
2022/11/24 03:15:13;;;;;;;107.47;44.70;;;1.60;99.90;;;;;;4922255;28;20195;-84
2022/11/24 03:17:49;;;;;;;95.90;41.22;;;1.50;99.90;;;;;;4921979;28;20239;-84
2022/11/24 03:20:27;;;;;;;105.55;45.80;;;1.20;99.90;;;;;;4921638;28;20266;-83
2022/11/24 03:24:08;;;;;;;93.05;43.13;;;1.60;99.90;;;;;;5052658;22;20222;-83
2022/11/24 03:30:24;;;;;;;119.13;42.13;;;;;;;;;;4969700;28;20207;-83
2022/11/24 03:58:15;;;;;;;;;;;;;;;;;;;;;
2022/11/24 04:01:13;;;;;;;103.00;39.05;;;;;;;;;;4881622;29;20272;-83
2022/11/24 04:04:26;;;;;;;107.70;40.72;;;1.50;99.90;;;;;;4882793;29;20229;-84
2022/11/24 04:07:07;;;;;;;95.13;40.22;;;;;;;;;;4864811;29;20297;-84
2022/11/24 04:09:41;;;;;;;88.85;39.38;;;;;;;;;;4890946;29;20213;-84
2022/11/24 04:35:46;;;;;;;88.15;39.10;;;;;;;;;;4842036;29;20294;-83
2022/11/24 04:38:17;;;;;;;98.10;36.33;;;1.30;99.90;;;;;;4851598;29;20215;-81
2022/11/24 04:40:51;;;;;;;106.38;39.42;;;1.50;99.90;;;;;;4851664;29;20680;-82
2022/11/24 04:43:20;;;;;;;90.05;37.42;;;1.20;99.90;;;;;;4894478;29;20244;-83
2022/11/24 04:45:48;;;;;;;97.97;38.60;;;1.40;99.90;;;;;;4921345;28;20208;-83
2022/11/24 04:48:19;;;;;;;97.28;39.10;;;1.70;99.90;;;;;;4920288;29;20247;-84
2022/11/24 04:50:49;;;;;;;85.55;35.72;;;1.60;99.90;;;;;;4924017;28;20227;-85
2022/11/24 05:07:27;;;;;;;94.05;37.35;;;1.50;99.90;;;;;;4871596;29;20678;-86
2022/11/24 05:16:40;;;;;;;70.90;32.40;;;;;;;;;;4966311;28;20208;-84
2022/11/24 05:20:05;;;;;;;76.03;36.10;;;1.40;99.90;;;;;;4924623;28;20203;-85
2022/11/24 05:25:35;;;;;;;71.82;34.42;;;;;;;;;;4847984;29;20778;-85
2022/11/24 05:28:33;;;;;;;78.68;37.78;;;1.40;99.90;;;;;;4845785;29;20830;-85
2022/11/24 05:31:13;;;;;;;103.95;43.90;;;;;;;;;;4843122;29;20492;-85
2022/11/24 05:33:58;;;;;;;86.82;36.38;;;;;;;;;;4898202;29;20238;-85
2022/11/24 05:37:09;;;;;;;69.88;34.78;;;1.40;99.90;;;;;;4920812;28;20239;-85
2022/11/24 05:39:54;;;;;;;79.32;34.33;;;;;;;;;;4920101;29;20704;-85
2022/11/24 05:45:45;;;;;;;73.32;31.00;;;;;;;;;;5000537;28;20173;-84
2022/11/24 05:51:29;;;;;;;81.30;36.00;;;;;;;;;;4995983;28;20256;-85
2022/11/24 05:54:28;;;;;;;78.82;33.15;;;1.10;99.90;;;;;;4957727;28;20757;-85
2022/11/24 05:57:38;;;;;;;67.88;31.85;;;1.10;99.90;;;;;;4893946;29;20219;-85
2022/11/24 06:00:26;;;;;;;80.88;34.28;;;;;;;;;;4933002;28;20207;-85
2022/11/24 06:02:59;;;;;;;79.13;34.90;;;;;;;;;;4920302;29;20270;-85
2022/11/24 06:08:49;;;;;;;72.22;32.75;;;1.30;99.90;;;;;;4932133;28;20208;-83
2022/11/24 06:27:02;;;;;;;56.90;28.40;;;;;;;;;;4926914;28;20207;-83
2022/11/24 06:29:29;;;;;;;67.22;30.33;;;1.20;99.90;;;;;;4956667;22;20223;-84
2022/11/24 06:31:56;;;;;;;63.70;28.50;;;0.70;99.90;;;;;;4963594;29;20222;-85
2022/11/24 06:34:23;;;;;;;65.22;30.83;;;1.30;99.90;;;;;;4963904;29;20233;-85
2022/11/24 06:36:50;;;;;;;81.50;34.67;;;1.40;99.90;;;;;;4963392;28;20565;-85
2022/11/24 06:39:18;;;;;;;67.25;29.50;;;1.50;99.90;;;;;;4963486;28;20294;-86
2022/11/24 06:41:45;;;;;;;69.80;31.42;;;1.00;99.90;;;;;;4964000;29;20214;-85
2022/11/24 06:44:12;;;;;;;71.85;30.70;;;1.30;99.90;;;;;;4963457;29;20206;-85
2022/11/24 06:46:39;;;;;;;59.65;29.63;;;;;;;;;;4963480;29;20274;-86
2022/11/24 06:49:06;;;;;;;79.57;32.70;;;1.20;99.90;;;;;;4963689;28;20235;-86
2022/11/24 06:51:32;;;;;;;63.58;30.10;;;1.60;99.90;;;;;;4964199;28;20270;-85
2022/11/24 06:54:00;;;;;;;77.35;31.70;;;1.30;99.90;;;;;;4969153;29;20202;-86
2022/11/24 06:56:28;;;;;;;69.32;30.58;;;1.20;99.90;;;;;;4967851;29;20202;-85
2022/11/24 06:58:55;;;;;;;77.43;34.47;;;0.80;99.90;;;;;;4966517;28;20268;-85
2022/11/24 07:01:23;;;;;;;71.32;32.35;;;1.10;99.90;;;;;;4965685;29;20271;-84
2022/11/24 07:03:51;;;;;;;72.88;30.75;;;1.20;99.90;;;;;;4965460;29;20294;-85
2022/11/24 07:06:19;;;;;;;74.50;36.05;;;1.30;99.90;;;;;;4963256;29;20313;-85
2022/11/24 07:08:46;;;;;;;75.88;30.10;;;;;;;;;;4963319;28;20233;-83
2022/11/24 07:11:16;;;;;;;81.63;32.50;;;1.50;99.90;;;;;;4962648;28;20241;-85
2022/11/24 07:13:47;;;;;;;72.05;29.77;;;1.20;99.90;;;;;;4960698;28;20210;-84
2022/11/24 07:16:16;;;;;;;70.28;29.60;;;1.40;99.90;;;;;;4964741;29;20203;-84
2022/11/24 07:18:43;;;;;;;75.80;31.70;;;1.10;99.90;;;;;;4972298;29;20207;-84
2022/11/24 07:21:10;;;;;;;90.43;31.92;;;1.10;99.90;;;;;;4972862;28;20230;-85
2022/11/24 07:23:38;;;;;;;75.10;34.30;;;1.40;99.90;;;;;;4965398;29;20286;-86
2022/11/24 07:26:06;;;;;;;61.55;28.52;;;1.70;99.90;;;;;;4964897;29;20298;-86
2022/11/24 07:28:33;;;;;;;66.10;31.27;;;1.30;99.90;;;;;;4963721;29;20723;-85
2022/11/24 07:31:05;;;;;;;68.13;31.35;;;1.30;99.90;;;;;;4965410;28;20238;-85
2022/11/24 07:33:32;;;;;;;61.08;29.92;;;1.30;99.90;;;;;;4967482;29;20237;-84
2022/11/24 07:36:00;;;;;;;76.95;31.20;;;1.30;99.90;;;;;;4966278;29;20253;-85
2022/11/24 07:38:26;;;;;;;53.95;26.67;;;1.30;99.90;;;;;;4965690;29;20211;-85
2022/11/24 07:40:53;;;;;;;68.18;28.77;;;1.30;99.90;;;;;;4965433;28;20573;-86
2022/11/24 07:43:20;;;;;;;66.93;36.03;;;1.40;99.90;;;;;;4966041;29;20265;-85
2022/11/24 07:45:51;;;;;;;70.30;35.38;;;1.00;99.90;;;;;;4967026;29;20202;-84
2022/11/24 07:48:20;;;;;;;55.20;28.67;;;1.10;99.90;;;;;;4966861;29;20218;-85
2022/11/24 07:50:46;;;;;;;56.45;29.13;;;1.40;99.90;;;;;;4967730;28;20286;-86
2022/11/24 07:53:13;;;;;;;61.15;36.25;;;1.30;99.90;;;;;;4967493;29;20203;-85
2022/11/24 07:55:40;;;;;;;63.78;30.92;;;1.30;99.90;;;;;;4965570;28;20210;-86
2022/11/24 07:58:07;;;;;;;58.28;30.58;;;1.30;99.90;;;;;;4966145;29;20275;-85
2022/11/24 08:00:34;;;;;;;53.35;27.38;;;;;;;;;;4965974;28;20237;-85
2022/11/24 08:03:01;;;;;;;58.97;27.42;;;1.50;99.90;;;;;;4966666;28;20219;-85
2022/11/24 08:05:31;;;;;;;56.85;29.50;;;;;;;;;;4967446;29;20620;-86
2022/11/24 08:08:00;;;;;;;62.92;27.65;;;;;;;;;;4966918;28;20207;-85
2022/11/24 09:01:49;;;;;;;54.95;29.55;;;;;;;;;;4960635;26;20234;-85
2022/11/24 09:11:41;;;;;;;57.00;30.30;;;;;;;;;;4836934;29;20219;-87
2022/11/24 09:14:08;;;;;;;51.20;26.80;;;2.00;99.90;;;;;;4940774;22;20241;-85
2022/11/24 09:16:34;;;;;;;54.13;26.52;;;2.20;99.90;;;;;;4977113;28;20715;-85
2022/11/24 09:19:05;;;;;;;44.45;24.48;;;2.30;99.90;;;;;;4979597;28;20198;-86
2022/11/24 09:21:36;;;;;;;51.10;26.08;;;2.20;99.90;;;;;;4979366;28;20710;-85
2022/11/24 09:24:04;;;;;;;48.15;27.73;;;2.00;99.90;;;;;;4982017;28;20238;-85
2022/11/24 09:26:33;;;;;;;52.95;26.95;;;1.80;99.90;;;;;;4987045;28;20274;-84
2022/11/24 09:29:01;;;;;;;46.65;27.80;;;2.10;99.90;;;;;;4986205;28;20230;-85
2022/11/24 09:31:32;;;;;;;53.58;26.00;;;2.40;99.90;;;;;;4992462;28;20213;-84
2022/11/24 09:33:59;;;;;;;47.03;26.13;;;2.20;99.90;;;;;;4990719;28;20225;-85
2022/11/24 09:36:30;;;;;;;49.15;25.95;;;2.10;99.90;;;;;;4986099;28;20677;-86
2022/11/24 09:38:57;;;;;;;58.90;29.33;;;2.40;99.90;;;;;;4990335;28;20186;-84
2022/11/24 09:41:45;;;;;;;52.50;27.60;;;2.20;99.90;;;;;;4990444;28;20206;-86
2022/11/24 09:44:38;;;;;;;54.08;25.67;;;2.30;99.90;;;;;;4988698;28;20258;-85
2022/11/24 09:47:13;;;;;;;52.17;28.17;;;2.50;99.90;;;;;;4984250;28;20273;-85
2022/11/24 09:49:50;;;;;;;53.22;29.90;;;2.60;99.90;;;;;;4980208;28;20719;-85
2022/11/24 09:52:26;;;;;;;50.25;27.65;;;2.90;99.90;;;;;;4980836;28;20217;-86
2022/11/24 09:54:58;;;;;;;46.33;26.55;;;2.80;99.90;;;;;;4979684;28;20264;-86
2022/11/24 09:57:29;;;;;;;49.33;26.38;;;2.40;99.90;;;;;;4979068;28;20194;-87
2022/11/24 10:00:13;;;;;;;48.78;27.90;;;2.70;99.90;;;;;;4979339;28;20259;-86
2022/11/24 10:02:40;;;;;;;54.80;26.75;;;2.60;99.90;;;;;;4979781;28;20293;-88
2022/11/24 10:05:13;;;;;;;42.50;24.70;;;2.90;99.90;;;;;;4979733;28;20299;-84
2022/11/24 10:07:48;;;;;;;43.55;24.83;;;3.10;99.90;;;;;;4978319;28;20193;-84
2022/11/24 10:10:30;;;;;;;49.17;28.25;;;3.00;99.90;;;;;;4979536;28;20225;-85
2022/11/24 10:13:34;;;;;;;;;;;;;;;;;;;;;
2022/11/24 10:16:11;;;;;;;48.15;25.33;;;2.70;99.90;;;;;;5004509;28;20240;-85
2022/11/24 10:18:46;;;;;;;47.15;27.48;;;2.90;99.90;;;;;;4989323;28;20186;-85
2022/11/24 10:21:41;;;;;;;46.95;28.13;;;3.00;99.90;;;;;;4985191;28;20201;-82
2022/11/24 10:24:40;;;;;;;42.65;25.15;;;3.20;99.90;;;;;;4986528;28;20237;-86
2022/11/24 10:27:17;;;;;;;42.50;24.30;;;3.30;99.90;;;;;;4980585;28;20194;-86
2022/11/24 10:29:44;;;;;;;42.85;28.05;;;3.10;99.90;;;;;;4979142;28;20204;-86
2022/11/24 10:32:17;;;;;;;45.95;26.42;;;3.30;99.90;;;;;;4978848;28;20295;-87
2022/11/24 10:34:45;;;;;;;43.50;26.27;;;3.40;99.90;;;;;;4978600;28;20337;-85
2022/11/24 10:37:16;;;;;;;45.42;25.80;;;3.40;99.90;;;;;;4980488;28;20238;-86
2022/11/24 10:39:52;;;;;;;38.47;24.95;;;3.50;99.90;;;;;;4985200;28;20221;-85
2022/11/24 10:42:23;;;;;;;45.95;25.35;;;3.20;99.90;;;;;;4981577;28;20196;-86
2022/11/24 10:44:59;;;;;;;41.08;25.30;;;3.40;99.90;;;;;;4988610;28;20297;-84
2022/11/24 10:47:26;;;;;;;44.70;25.40;;;3.70;99.90;;;;;;4987954;28;20194;-85
2022/11/24 10:49:58;;;;;;;41.85;24.48;;;3.40;99.90;;;;;;4989142;28;20412;-87
2022/11/24 10:52:26;;;;;;;43.33;23.52;;;3.60;99.90;;;;;;4989211;28;20190;-84
2022/11/24 10:54:59;;;;;;;38.92;24.25;;;2.90;99.90;;;;;;4983831;28;20260;-87
2022/11/24 10:57:33;;;;;;;44.17;24.92;;;3.50;99.90;;;;;;4981134;28;20277;-86
2022/11/24 11:00:02;;;;;;;35.88;23.50;;;3.60;99.90;;;;;;4981679;28;20249;-86
2022/11/24 11:02:32;;;;;;;34.22;22.45;;;3.70;99.90;;;;;;4979956;28;20292;-85
2022/11/24 11:05:22;;;;;;;36.92;23.88;;;4.10;99.90;;;;;;4981099;28;20240;-86
2022/11/24 11:07:49;;;;;;;36.47;22.80;;;4.00;99.90;;;;;;4985196;28;20216;-85
2022/11/24 11:10:24;;;;;;;44.50;25.85;;;4.00;99.90;;;;;;4984443;28;20209;-86
2022/11/24 11:12:51;;;;;;;35.30;23.48;;;4.10;99.90;;;;;;4984441;28;20194;-85
2022/11/24 11:15:24;;;;;;;40.25;24.77;;;3.70;99.90;;;;;;4985583;28;20233;-85
2022/11/24 11:17:56;;;;;;;36.85;23.83;;;4.10;99.90;;;;;;4986116;28;20245;-86
2022/11/24 11:20:28;;;;;;;36.55;23.00;;;4.00;99.90;;;;;;4984883;28;20201;-86
2022/11/24 11:22:59;;;;;;;42.40;25.13;;;4.30;99.90;;;;;;4982367;28;20245;-86
2022/11/24 11:25:32;;;;;;;41.97;26.02;;;4.20;99.90;;;;;;4984058;28;20229;-84
2022/11/24 11:28:27;;;;;;;40.13;25.65;;;4.20;99.90;;;;;;4982727;28;20227;-84
2022/11/24 11:31:00;;;;;;;34.88;24.05;;;4.30;99.90;;;;;;4981945;28;20217;-87
2022/11/24 11:33:29;;;;;;;43.00;25.55;;;4.70;99.90;;;;;;4981647;28;20189;-86
2022/11/24 11:35:59;;;;;;;41.50;24.80;;;4.40;99.90;;;;;;4982169;28;20320;-85
2022/11/24 11:38:32;;;;;;;38.65;24.60;;;4.60;99.90;;;;;;4984130;28;20206;-86
2022/11/24 11:41:02;;;;;;;40.83;24.05;;;4.60;99.90;;;;;;4990161;28;20257;-85
2022/11/24 11:43:34;;;;;;;38.30;23.45;;;5.00;99.90;;;;;;4985788;28;20297;-85
2022/11/24 11:46:05;;;;;;;38.88;22.58;;;4.60;99.90;;;;;;4984403;28;20258;-85
2022/11/24 11:48:34;;;;;;;33.60;23.08;;;5.00;99.90;;;;;;4988928;28;20220;-85
2022/11/24 11:51:06;;;;;;;33.72;23.45;;;5.40;99.90;;;;;;4988610;28;20221;-86
2022/11/24 11:53:44;;;;;;;40.13;23.45;;;4.80;99.90;;;;;;4985920;28;20186;-86
2022/11/24 11:56:24;;;;;;;39.88;23.00;;;5.00;99.90;;;;;;4983920;28;20208;-85
2022/11/24 11:59:10;;;;;;;38.05;23.10;;;4.90;99.90;;;;;;4984873;28;20200;-85
2022/11/24 12:08:41;;;;;;;35.65;22.58;;;4.70;99.90;;;;;;4996406;28;20190;-85
2022/11/24 12:18:20;;;;;;;34.60;22.83;;;4.90;99.90;;;;;;4964698;28;20210;-86
2022/11/24 12:24:44;;;;;;;32.05;21.30;;;4.90;99.90;;;;;;4988662;28;20222;-86
2022/11/24 12:27:46;;;;;;;;;;;;;;;;;;;;;
2022/11/24 12:30:22;;;;;;;48.05;22.55;;;;;;;;;;4981363;28;20206;-85
2022/11/24 12:33:45;;;;;;;31.40;22.30;;;4.80;99.90;;;;;;4982305;28;20252;-85
2022/11/24 12:36:52;;;;;;;41.63;23.98;;;4.90;99.90;;;;;;4981871;28;20297;-85
2022/11/24 12:49:24;;;;;;;37.55;22.85;;;4.90;99.90;;;;;;4960181;29;20214;-86
2022/11/24 12:52:15;;;;;;;;;;;;;;;;;;;;;
2022/11/24 12:55:09;;;;;;;37.17;23.52;;;5.00;99.90;;;;;;4961139;28;20305;-86
2022/11/24 13:11:27;;;;;;;;;;;;;;;;;;;;;
2022/11/24 13:14:42;;;;;;;37.15;24.70;;;5.10;99.90;;;;;;4929177;28;20714;-86
2022/11/24 13:52:48;;;;;;;41.17;25.60;;;5.30;99.90;;;;;;5051184;28;20203;-85
2022/11/24 13:55:32;;;;;;;39.90;25.38;;;5.20;99.90;;;;;;5051210;28;20207;-86
2022/11/24 13:58:18;;;;;;;39.15;26.13;;;5.20;99.90;;;;;;5051297;28;20194;-86
2022/11/24 14:01:03;;;;;;;38.80;25.75;;;5.60;99.90;;;;;;5048699;28;20228;-85
2022/11/24 14:03:33;;;;;;;42.10;25.75;;;5.30;99.90;;;;;;5048362;28;20212;-86
2022/11/24 14:06:02;;;;;;;41.22;26.67;;;5.70;99.90;;;;;;5045202;28;20558;-85
2022/11/24 14:08:33;;;;;;;38.42;24.73;;;5.50;99.90;;;;;;5044418;28;20268;-87
2022/11/24 14:11:01;;;;;;;48.40;27.40;;;5.90;99.90;;;;;;5048142;28;20642;-85
2022/11/24 14:13:30;;;;;;;43.33;26.35;;;5.10;99.90;;;;;;5051283;28;20214;-86
2022/11/24 14:16:05;;;;;;;37.42;22.92;;;5.60;99.90;;;;;;5048782;28;20271;-84
2022/11/24 14:18:38;;;;;;;40.03;26.10;;;5.40;99.90;;;;;;5048029;28;20188;-84
2022/11/24 14:21:21;;;;;;;37.20;25.15;;;5.20;99.90;;;;;;5047381;28;20224;-85
2022/11/24 14:23:52;;;;;;;41.75;24.55;;;5.30;99.90;;;;;;5044525;28;20223;-85
2022/11/24 14:26:21;;;;;;;34.65;24.48;;;5.40;99.90;;;;;;5044366;28;20199;-87
2022/11/24 14:29:02;;;;;;;36.00;23.95;;;5.40;99.90;;;;;;5053998;28;20204;-85
2022/11/24 14:31:29;;;;;;;35.90;24.17;;;;;;;;;;5057736;28;20210;-85
2022/11/24 14:34:20;;;;;;;37.22;25.90;;;5.40;99.90;;;;;;5057187;28;20195;-85
2022/11/24 14:36:47;;;;;;;36.88;25.10;;;;;;;;;;5056950;28;20233;-85
2022/11/24 14:39:21;;;;;;;36.03;23.13;;;5.30;99.90;;;;;;5054751;28;20231;-85
2022/11/24 14:41:58;;;;;;;30.52;21.10;;;5.30;99.90;;;;;;5055845;28;20207;-85
2022/11/24 14:44:28;;;;;;;46.60;27.25;;;5.30;99.90;;;;;;5052156;28;20238;-84
2022/11/24 14:47:02;;;;;;;43.28;27.38;;;;;;;;;;5046713;28;20187;-85
2022/11/24 14:49:30;;;;;;;48.20;26.77;;;;;;;;;;5050578;28;20588;-84
2022/11/24 14:52:09;;;;;;;50.63;30.25;;;5.00;99.90;;;;;;4972664;28;20321;-84
2022/11/24 14:54:50;;;;;;;45.30;29.52;;;5.00;99.90;;;;;;4969314;28;20187;-85
2022/11/24 14:57:38;;;;;;;47.58;30.05;;;5.00;99.90;;;;;;4976334;28;20195;-87
2022/11/24 15:06:49;;;;;;;47.35;27.73;;;4.90;99.90;;;;;;4963886;28;20725;-84
2022/11/24 15:09:25;;;;;;;55.25;29.63;;;4.90;99.90;;;;;;4960833;28;20207;-86
2022/11/24 15:12:19;;;;;;;50.85;31.13;;;5.00;99.90;;;;;;4967408;28;20230;-87
2022/11/24 15:14:55;;;;;;;50.25;30.92;;;5.00;99.90;;;;;;4959921;28;20217;-86
2022/11/24 15:17:27;;;;;;;42.60;28.02;;;5.00;99.90;;;;;;4966993;28;20209;-87
2022/11/24 15:23:21;;;;;;;48.65;29.52;;;4.80;99.90;;;;;;4960173;28;20209;-86
2022/11/24 15:25:49;;;;;;;46.30;27.25;;;;;;;;;;4968152;29;20282;-86
2022/11/24 15:28:18;;;;;;;47.58;27.02;;;;;;;;;;4959959;28;20229;-86
2022/11/24 15:31:15;;;;;;;55.17;29.30;;;4.60;99.90;;;;;;4965545;28;20253;-85
2022/11/24 15:33:43;;;;;;;50.85;28.83;;;;;;;;;;4955687;29;20215;-86
2022/11/24 15:36:47;;;;;;;45.28;27.83;;;4.60;99.90;;;;;;4964779;28;20261;-87
2022/11/24 15:39:14;;;;;;;59.25;30.25;;;;;;;;;;4939490;29;20211;-86
2022/11/24 15:41:47;;;;;;;44.33;27.70;;;;;;;;;;4967988;28;20218;-84
2022/11/24 15:44:15;;;;;;;50.35;30.33;;;;;;;;;;4960569;28;20195;-84
2022/11/24 15:46:45;;;;;;;49.95;29.40;;;;;;;;;;4967472;28;20206;-86
2022/11/24 15:52:20;;;;;;;61.33;33.85;;;;;;;;;;4974627;28;20446;-85
2022/11/24 15:58:22;;;;;;;49.42;29.95;;;;;;;;;;4955252;28;20214;-86
2022/11/24 16:00:52;;;;;;;52.90;29.77;;;;;;;;;;4969291;28;20222;-86
2022/11/24 16:06:46;;;;;;;53.55;31.48;;;;;;;;;;4923656;28;20256;-85
2022/11/24 16:09:30;;;;;;;58.47;34.00;;;;;;;;;;4963264;28;20459;-85
2022/11/24 16:12:02;;;;;;;59.47;33.30;;;;;;;;;;4963663;28;20254;-86
2022/11/24 16:14:29;;;;;;;55.65;31.05;;;;;;;;;;4964298;28;20187;-86
2022/11/24 16:17:11;;;;;;;49.72;30.25;;;;;;;;;;4963936;29;20229;-85
2022/11/24 16:19:38;;;;;;;54.35;30.58;;;;;;;;;;4962563;29;20203;-86
2022/11/24 16:22:06;;;;;;;51.83;30.23;;;;;;;;;;4962738;28;20211;-85
2022/11/24 16:24:34;;;;;;;52.22;30.05;;;;;;;;;;4963355;28;20226;-85
2022/11/24 16:27:01;;;;;;;53.42;29.98;;;;;;;;;;4967047;28;20232;-86
2022/11/24 16:29:28;;;;;;;56.92;32.08;;;;;;;;;;4962919;28;20215;-86
2022/11/24 16:32:56;;;;;;;49.22;29.10;;;4.80;99.90;;;;;;4963565;28;20307;-85
2022/11/24 16:39:26;;;;;;;61.40;31.40;;;;;;;;;;4970104;28;20206;-86
2022/11/24 16:41:53;;;;;;;59.40;31.35;;;;;;;;;;4965347;28;20234;-86
2022/11/24 16:44:20;;;;;;;52.22;33.30;;;;;;;;;;4968073;28;20697;-84
2022/11/24 16:46:49;;;;;;;53.95;31.95;;;;;;;;;;4969348;28;20206;-85
2022/11/24 16:49:16;;;;;;;58.58;31.98;;;;;;;;;;4966468;28;20270;-86
2022/11/24 16:52:21;;;;;;;55.80;30.52;;;5.00;99.90;;;;;;4973700;28;20230;-86
2022/11/24 16:54:51;;;;;;;57.63;32.10;;;;;;;;;;4966923;28;20229;-85
2022/11/24 16:57:51;;;;;;;58.53;34.55;;;4.60;99.90;;;;;;4968674;28;20217;-87
2022/11/24 17:00:24;;;;;;;55.88;31.98;;;;;;;;;;4971304;29;20230;-86
2022/11/24 17:02:57;;;;;;;50.88;29.50;;;;;;;;;;4966074;28;20210;-87
2022/11/24 17:05:58;;;;;;;56.03;31.55;;;4.60;99.90;;;;;;4965635;29;20215;-86
2022/11/24 17:08:25;;;;;;;65.00;32.58;;;;;;;;;;4959277;29;20232;-86
2022/11/24 17:11:07;;;;;;;58.63;33.80;;;;;;;;;;4964233;28;20230;-84
2022/11/24 17:13:36;;;;;;;53.15;29.52;;;;;;;;;;4961966;28;20222;-86
2022/11/24 17:16:21;;;;;;;48.65;28.25;;;4.60;99.90;;;;;;4962073;28;20203;-85
2022/11/24 17:18:48;;;;;;;44.60;29.15;;;;;;;;;;4965340;28;20274;-84
2022/11/24 17:21:18;;;;;;;45.72;27.77;;;4.50;99.90;;;;;;4969236;28;20235;-87
2022/11/24 17:23:53;;;;;;;51.60;27.30;;;4.40;99.90;;;;;;4964535;29;20222;-87
2022/11/24 17:26:21;;;;;;;46.75;29.90;;;;;;;;;;4960851;28;20272;-85
2022/11/24 17:28:49;;;;;;;47.25;29.33;;;;;;;;;;4960445;28;20241;-86
2022/11/24 17:31:20;;;;;;;51.35;28.98;;;4.30;99.90;;;;;;4960845;28;20250;-86
2022/11/24 17:33:49;;;;;;;45.80;27.45;;;;;;;;;;4960811;28;20191;-86
2022/11/24 17:36:18;;;;;;;46.00;28.27;;;;;;;;;;4962052;28;20206;-85
2022/11/24 17:38:56;;;;;;;52.13;30.25;;;4.20;99.90;;;;;;4961812;28;20203;-85
2022/11/24 17:41:31;;;;;;;51.40;30.67;;;;;;;;;;4966797;28;20237;-84
2022/11/24 17:44:11;;;;;;;48.17;28.33;;;;;;;;;;4970781;28;20273;-85
2022/11/24 17:46:48;;;;;;;42.83;27.45;;;;;;;;;;4970986;28;20260;-85
2022/11/24 17:49:21;;;;;;;44.38;26.00;;;;;;;;;;4969368;28;20217;-84
2022/11/24 17:52:17;;;;;;;45.22;26.42;;;;;;;;;;4969830;28;20237;-86
2022/11/24 17:54:53;;;;;;;100.80;50.45;;;;;;;;;;4967253;28;20220;-86
2022/11/24 18:00:43;;;;;;;46.03;26.65;;;;;;;;;;4948798;29;20234;-85
2022/11/24 18:03:12;;;;;;;42.03;26.33;;;;;;;;;;4965558;28;20225;-85
2022/11/24 18:05:39;;;;;;;52.80;27.98;;;;;;;;;;4965825;28;20265;-83
2022/11/24 18:08:07;;;;;;;53.38;32.50;;;;;;;;;;4965555;28;20222;-85
2022/11/24 18:10:37;;;;;;;56.83;32.63;;;;;;;;;;4962699;28;20231;-85
2022/11/24 18:16:24;;;;;;;47.63;28.67;;;;;;;;;;4959573;28;20215;-83
2022/11/24 18:18:54;;;;;;;51.13;30.42;;;;;;;;;;4961923;28;20224;-85
2022/11/24 18:21:22;;;;;;;48.17;30.00;;;;;;;;;;4960259;28;20230;-85
2022/11/24 18:23:52;;;;;;;47.40;29.73;;;;;;;;;;4959129;28;20214;-85
2022/11/24 18:26:20;;;;;;;58.00;29.73;;;;;;;;;;4962153;28;20786;-85
2022/11/24 18:28:47;;;;;;;46.03;27.27;;;;;;;;;;4961533;28;20264;-86
2022/11/24 18:31:17;;;;;;;52.70;28.08;;;4.70;99.90;;;;;;4960499;28;20230;-86
2022/11/24 18:33:45;;;;;;;48.30;27.45;;;4.30;99.90;;;;;;4963053;28;20210;-84
2022/11/24 18:36:14;;;;;;;45.83;28.25;;;4.60;99.90;;;;;;4961699;28;20275;-85
2022/11/24 18:38:44;;;;;;;44.90;27.38;;;4.80;99.90;;;;;;4962272;28;20266;-86
2022/11/24 18:41:12;;;;;;;41.53;25.52;;;4.80;99.90;;;;;;4961254;28;20226;-85
2022/11/24 18:43:40;;;;;;;40.50;26.10;;;4.70;99.90;;;;;;4960048;28;20278;-87
2022/11/24 18:46:08;;;;;;;44.83;25.48;;;4.80;99.90;;;;;;4960773;28;20627;-85
2022/11/24 18:48:36;;;;;;;38.15;23.30;;;4.70;99.90;;;;;;4961045;29;20274;-84
2022/11/24 18:51:03;;;;;;;41.03;25.40;;;4.90;99.90;;;;;;4961089;28;20226;-85
2022/11/24 18:53:31;;;;;;;49.35;27.38;;;4.70;99.90;;;;;;4961257;29;20203;-85
2022/11/24 18:55:58;;;;;;;43.20;25.30;;;4.70;99.90;;;;;;4963997;28;20212;-85
2022/11/24 18:58:27;;;;;;;40.03;25.35;;;4.30;99.90;;;;;;4967209;29;20207;-86
2022/11/24 19:00:55;;;;;;;40.90;24.20;;;4.60;99.90;;;;;;4967057;28;20280;-86
2022/11/24 19:03:22;;;;;;;42.13;24.88;;;4.60;99.90;;;;;;4965873;28;20592;-84